sensor_id;sensor_type;location;lat;lon;timestamp;pressure;altitude;pressure_sealevel;temperature;humidity
11499;BME280;5806;48.748;9.278;2024-02-21T00:00:11;101783.88;;;9.88;75.58
11499;BME280;5806;48.748;9.278;2024-02-21T00:02:38;101782.30;;;9.90;74.83
11499;BME280;5806;48.748;9.278;2024-02-21T00:05:06;101776.42;;;9.93;75.25
11499;BME280;5806;48.748;9.278;2024-02-21T00:07:35;101769.81;;;9.85;76.31
11499;BME280;5806;48.748;9.278;2024-02-21T00:10:03;101772.09;;;9.88;75.85
11499;BME280;5806;48.748;9.278;2024-02-21T00:12:30;101771.05;;;9.82;76.56
11499;BME280;5806;48.748;9.278;2024-02-21T00:14:59;101769.68;;;9.82;76.18
11499;BME280;5806;48.748;9.278;2024-02-21T00:17:33;101772.19;;;9.90;76.01
11499;BME280;5806;48.748;9.278;2024-02-21T00:20:01;101770.84;;;9.84;77.38
11499;BME280;5806;48.748;9.278;2024-02-21T00:22:28;101764.55;;;9.90;76.91
11499;BME280;5806;48.748;9.278;2024-02-21T00:24:57;101758.77;;;9.89;76.50
11499;BME280;5806;48.748;9.278;2024-02-21T00:27:25;101752.05;;;9.85;76.87
11499;BME280;5806;48.748;9.278;2024-02-21T00:29:53;101749.84;;;9.78;77.02
11499;BME280;5806;48.748;9.278;2024-02-21T00:32:20;101743.31;;;9.85;76.76
11499;BME280;5806;48.748;9.278;2024-02-21T00:34:48;101745.94;;;9.83;77.06
11499;BME280;5806;48.748;9.278;2024-02-21T00:37:15;101747.20;;;9.87;77.59
11499;BME280;5806;48.748;9.278;2024-02-21T00:39:43;101738.70;;;9.79;77.74
11499;BME280;5806;48.748;9.278;2024-02-21T00:42:10;101739.63;;;9.82;77.46
11499;BME280;5806;48.748;9.278;2024-02-21T00:44:38;101732.92;;;9.85;77.10
11499;BME280;5806;48.748;9.278;2024-02-21T00:47:06;101731.77;;;9.83;76.45
11499;BME280;5806;48.748;9.278;2024-02-21T00:49:33;101732.70;;;9.80;77.27
11499;BME280;5806;48.748;9.278;2024-02-21T00:52:01;101736.57;;;9.88;76.21
11499;BME280;5806;48.748;9.278;2024-02-21T00:54:28;101731.11;;;9.88;76.27
11499;BME280;5806;48.748;9.278;2024-02-21T00:56:56;101727.67;;;9.83;77.37
11499;BME280;5806;48.748;9.278;2024-02-21T00:59:23;101719.24;;;9.91;76.93
11499;BME280;5806;48.748;9.278;2024-02-21T01:01:51;101709.25;;;9.88;76.93
11499;BME280;5806;48.748;9.278;2024-02-21T01:04:18;101710.73;;;9.84;76.64
11499;BME280;5806;48.748;9.278;2024-02-21T01:06:46;101712.81;;;9.95;76.76
11499;BME280;5806;48.748;9.278;2024-02-21T01:09:13;101711.67;;;9.87;76.54
11499;BME280;5806;48.748;9.278;2024-02-21T01:11:42;101703.78;;;9.88;76.63
11499;BME280;5806;48.748;9.278;2024-02-21T01:14:10;101710.42;;;9.83;77.03
11499;BME280;5806;48.748;9.278;2024-02-21T01:16:38;101712.32;;;9.76;76.98
11499;BME280;5806;48.748;9.278;2024-02-21T01:19:05;101701.08;;;9.75;77.79
11499;BME280;5806;48.748;9.278;2024-02-21T01:21:33;101700.12;;;9.78;77.59
11499;BME280;5806;48.748;9.278;2024-02-21T01:24:00;101702.76;;;9.76;78.64
11499;BME280;5806;48.748;9.278;2024-02-21T01:26:28;101694.45;;;9.80;77.88
11499;BME280;5806;48.748;9.278;2024-02-21T01:28:55;101696.64;;;9.87;77.15
11499;BME280;5806;48.748;9.278;2024-02-21T01:31:24;101687.73;;;9.76;78.27
11499;BME280;5806;48.748;9.278;2024-02-21T01:33:52;101690.36;;;9.73;78.42
11499;BME280;5806;48.748;9.278;2024-02-21T01:36:19;101689.64;;;9.75;79.74
11499;BME280;5806;48.748;9.278;2024-02-21T01:38:47;101689.64;;;9.75;78.75
11499;BME280;5806;48.748;9.278;2024-02-21T01:41:14;101684.91;;;9.73;78.29
11499;BME280;5806;48.748;9.278;2024-02-21T01:43:43;101679.32;;;9.77;78.33
11499;BME280;5806;48.748;9.278;2024-02-21T01:46:11;101679.62;;;9.78;78.93
11499;BME280;5806;48.748;9.278;2024-02-21T01:48:39;101675.34;;;9.73;78.73
11499;BME280;5806;48.748;9.278;2024-02-21T01:51:06;101671.26;;;9.67;79.04
11499;BME280;5806;48.748;9.278;2024-02-21T01:53:36;101671.02;;;9.81;78.29
11499;BME280;5806;48.748;9.278;2024-02-21T01:56:06;101664.31;;;9.71;78.74
11499;BME280;5806;48.748;9.278;2024-02-21T01:58:36;101653.05;;;9.83;78.17
11499;BME280;5806;48.748;9.278;2024-02-21T02:01:04;101658.11;;;9.79;79.19
11499;BME280;5806;48.748;9.278;2024-02-21T02:03:32;101654.62;;;9.81;78.18
11499;BME280;5806;48.748;9.278;2024-02-21T02:06:00;101648.11;;;9.76;78.25
11499;BME280;5806;48.748;9.278;2024-02-21T02:08:28;101649.92;;;9.66;78.71
11499;BME280;5806;48.748;9.278;2024-02-21T02:10:55;101637.53;;;9.64;78.60
11499;BME280;5806;48.748;9.278;2024-02-21T02:13:23;101624.89;;;9.76;78.47
11499;BME280;5806;48.748;9.278;2024-02-21T02:15:51;101624.28;;;9.74;78.64
11499;BME280;5806;48.748;9.278;2024-02-21T02:18:19;101617.13;;;9.79;78.36
11499;BME280;5806;48.748;9.278;2024-02-21T02:20:47;101612.17;;;9.79;78.21
11499;BME280;5806;48.748;9.278;2024-02-21T02:23:27;101612.36;;;9.84;78.03
11499;BME280;5806;48.748;9.278;2024-02-21T02:25:55;101612.94;;;9.77;78.42
11499;BME280;5806;48.748;9.278;2024-02-21T02:28:23;101617.24;;;9.75;78.16
11499;BME280;5806;48.748;9.278;2024-02-21T02:30:51;101609.66;;;9.77;79.02
11499;BME280;5806;48.748;9.278;2024-02-21T02:33:19;101595.39;;;9.75;78.30
11499;BME280;5806;48.748;9.278;2024-02-21T02:35:46;101598.00;;;9.79;78.46
11499;BME280;5806;48.748;9.278;2024-02-21T02:38:14;101589.07;;;9.75;79.00
11499;BME280;5806;48.748;9.278;2024-02-21T02:40:42;101583.73;;;9.71;78.48
11499;BME280;5806;48.748;9.278;2024-02-21T02:43:09;101569.22;;;9.70;79.11
11499;BME280;5806;48.748;9.278;2024-02-21T02:45:37;101569.34;;;9.66;79.24
11499;BME280;5806;48.748;9.278;2024-02-21T02:48:04;101572.29;;;9.71;79.51
11499;BME280;5806;48.748;9.278;2024-02-21T02:50:32;101565.70;;;9.63;79.62
11499;BME280;5806;48.748;9.278;2024-02-21T02:52:59;101559.69;;;9.64;79.54
11499;BME280;5806;48.748;9.278;2024-02-21T02:55:27;101562.42;;;9.64;79.66
11499;BME280;5806;48.748;9.278;2024-02-21T02:57:55;101563.66;;;9.68;79.48
11499;BME280;5806;48.748;9.278;2024-02-21T03:00:24;101572.83;;;9.64;79.92
11499;BME280;5806;48.748;9.278;2024-02-21T03:02:52;101567.06;;;9.63;80.12
11499;BME280;5806;48.748;9.278;2024-02-21T03:05:20;101568.10;;;9.69;80.15
11499;BME280;5806;48.748;9.278;2024-02-21T03:07:49;101574.80;;;9.66;79.68
11499;BME280;5806;48.748;9.278;2024-02-21T03:10:16;101566.27;;;9.72;80.20
11499;BME280;5806;48.748;9.278;2024-02-21T03:12:44;101568.61;;;9.68;80.01
11499;BME280;5806;48.748;9.278;2024-02-21T03:15:12;101571.05;;;9.67;80.24
11499;BME280;5806;48.748;9.278;2024-02-21T03:17:41;101556.44;;;9.64;80.64
11499;BME280;5806;48.748;9.278;2024-02-21T03:20:09;101553.92;;;9.63;80.22
11499;BME280;5806;48.748;9.278;2024-02-21T03:22:40;101545.61;;;9.67;80.12
11499;BME280;5806;48.748;9.278;2024-02-21T03:25:11;101540.23;;;9.69;80.60
11499;BME280;5806;48.748;9.278;2024-02-21T03:27:40;101534.95;;;9.74;79.85
11499;BME280;5806;48.748;9.278;2024-02-21T03:30:08;101524.82;;;9.66;81.10
11499;BME280;5806;48.748;9.278;2024-02-21T03:32:36;101531.52;;;9.70;80.68
11499;BME280;5806;48.748;9.278;2024-02-21T03:35:05;101529.55;;;9.61;81.33
11499;BME280;5806;48.748;9.278;2024-02-21T03:37:33;101528.19;;;9.61;80.75
11499;BME280;5806;48.748;9.278;2024-02-21T03:40:00;101516.32;;;9.65;81.09
11499;BME280;5806;48.748;9.278;2024-02-21T03:42:28;101514.38;;;9.72;80.56
11499;BME280;5806;48.748;9.278;2024-02-21T03:44:57;101518.11;;;9.62;80.47
11499;BME280;5806;48.748;9.278;2024-02-21T03:47:25;101528.95;;;9.59;80.40
11499;BME280;5806;48.748;9.278;2024-02-21T03:49:53;101516.92;;;9.67;80.43
11499;BME280;5806;48.748;9.278;2024-02-21T03:52:20;101506.46;;;9.57;81.13
11499;BME280;5806;48.748;9.278;2024-02-21T03:54:48;101497.84;;;9.60;80.60
11499;BME280;5806;48.748;9.278;2024-02-21T03:57:15;101509.19;;;9.57;80.59
11499;BME280;5806;48.748;9.278;2024-02-21T03:59:43;101514.31;;;9.63;80.70
11499;BME280;5806;48.748;9.278;2024-02-21T04:02:11;101505.70;;;9.66;79.93
11499;BME280;5806;48.748;9.278;2024-02-21T04:04:42;101509.13;;;9.70;80.03
11499;BME280;5806;48.748;9.278;2024-02-21T04:07:08;101508.16;;;9.58;80.43
11499;BME280;5806;48.748;9.278;2024-02-21T04:09:35;101515.56;;;9.67;80.14
11499;BME280;5806;48.748;9.278;2024-02-21T04:12:03;101508.30;;;9.70;80.33
11499;BME280;5806;48.748;9.278;2024-02-21T04:14:30;101501.03;;;9.51;80.54
11499;BME280;5806;48.748;9.278;2024-02-21T04:16:58;101515.89;;;9.61;80.66
11499;BME280;5806;48.748;9.278;2024-02-21T04:19:25;101515.20;;;9.57;80.73
11499;BME280;5806;48.748;9.278;2024-02-21T04:21:53;101508.64;;;9.64;80.27
11499;BME280;5806;48.748;9.278;2024-02-21T04:24:20;101513.64;;;9.74;80.00
11499;BME280;5806;48.748;9.278;2024-02-21T04:26:48;101512.86;;;9.60;80.70
11499;BME280;5806;48.748;9.278;2024-02-21T04:29:15;101513.92;;;9.59;80.57
11499;BME280;5806;48.748;9.278;2024-02-21T04:31:43;101505.78;;;9.68;80.22
11499;BME280;5806;48.748;9.278;2024-02-21T04:34:11;101493.95;;;9.59;80.57
11499;BME280;5806;48.748;9.278;2024-02-21T04:36:39;101494.17;;;9.57;80.34
11499;BME280;5806;48.748;9.278;2024-02-21T04:39:06;101487.34;;;9.57;80.59
11499;BME280;5806;48.748;9.278;2024-02-21T04:41:34;101481.58;;;9.56;80.82
11499;BME280;5806;48.748;9.278;2024-02-21T04:44:02;101477.44;;;9.63;80.72
11499;BME280;5806;48.748;9.278;2024-02-21T04:46:31;101478.33;;;9.57;80.33
11499;BME280;5806;48.748;9.278;2024-02-21T04:48:58;101482.30;;;9.61;80.30
11499;BME280;5806;48.748;9.278;2024-02-21T04:51:26;101487.34;;;9.57;80.82
11499;BME280;5806;48.748;9.278;2024-02-21T04:53:53;101483.58;;;9.58;81.00
11499;BME280;5806;48.748;9.278;2024-02-21T04:56:20;101493.95;;;9.59;80.72
11499;BME280;5806;48.748;9.278;2024-02-21T04:58:48;101490.50;;;9.61;79.88
11499;BME280;5806;48.748;9.278;2024-02-21T05:01:16;101488.31;;;9.54;80.35
11499;BME280;5806;48.748;9.278;2024-02-21T05:03:46;101495.63;;;9.60;80.06
11499;BME280;5806;48.748;9.278;2024-02-21T05:06:14;101492.38;;;9.60;80.48
11499;BME280;5806;48.748;9.278;2024-02-21T05:08:41;101486.73;;;9.55;81.96
11499;BME280;5806;48.748;9.278;2024-02-21T05:11:09;101483.28;;;9.51;81.50
11499;BME280;5806;48.748;9.278;2024-02-21T05:13:36;101488.53;;;9.52;80.66
11499;BME280;5806;48.748;9.278;2024-02-21T05:16:04;101478.00;;;9.56;80.36
11499;BME280;5806;48.748;9.278;2024-02-21T05:18:33;101481.79;;;9.55;81.07
11499;BME280;5806;48.748;9.278;2024-02-21T05:21:02;101483.67;;;9.61;80.48
11499;BME280;5806;48.748;9.278;2024-02-21T05:23:30;101478.94;;;9.59;80.63
11499;BME280;5806;48.748;9.278;2024-02-21T05:25:58;101480.56;;;9.66;80.27
11499;BME280;5806;48.748;9.278;2024-02-21T05:28:25;101478.00;;;9.56;80.62
11499;BME280;5806;48.748;9.278;2024-02-21T05:30:53;101478.76;;;9.54;80.63
11499;BME280;5806;48.748;9.278;2024-02-21T05:33:20;101480.60;;;9.60;80.76
11499;BME280;5806;48.748;9.278;2024-02-21T05:35:50;101479.45;;;9.65;80.20
11499;BME280;5806;48.748;9.278;2024-02-21T05:38:18;101476.84;;;9.61;80.29
11499;BME280;5806;48.748;9.278;2024-02-21T05:40:45;101471.75;;;9.49;81.13
11499;BME280;5806;48.748;9.278;2024-02-21T05:43:14;101464.46;;;9.58;80.56
11499;BME280;5806;48.748;9.278;2024-02-21T05:45:41;101465.06;;;9.60;80.57
11499;BME280;5806;48.748;9.278;2024-02-21T05:48:09;101457.52;;;9.56;80.10
11499;BME280;5806;48.748;9.278;2024-02-21T05:50:37;101454.05;;;9.58;80.01
11499;BME280;5806;48.748;9.278;2024-02-21T05:53:04;101452.39;;;9.57;80.04
11499;BME280;5806;48.748;9.278;2024-02-21T05:55:33;101454.48;;;9.55;79.80
11499;BME280;5806;48.748;9.278;2024-02-21T05:58:01;101464.47;;;9.52;79.80
11499;BME280;5806;48.748;9.278;2024-02-21T06:00:29;101459.39;;;9.62;79.43
11499;BME280;5806;48.748;9.278;2024-02-21T06:02:56;101453.75;;;9.57;79.43
11499;BME280;5806;48.748;9.278;2024-02-21T06:05:24;101457.21;;;9.55;79.42
11499;BME280;5806;48.748;9.278;2024-02-21T06:07:51;101457.21;;;9.55;78.95
11499;BME280;5806;48.748;9.278;2024-02-21T06:10:19;101463.40;;;9.59;79.17
11499;BME280;5806;48.748;9.278;2024-02-21T06:12:46;101465.45;;;9.64;78.97
11499;BME280;5806;48.748;9.278;2024-02-21T06:15:14;101456.91;;;9.54;79.13
11499;BME280;5806;48.748;9.278;2024-02-21T06:17:42;101451.71;;;9.61;79.21
11499;BME280;5806;48.748;9.278;2024-02-21T06:20:09;101453.50;;;9.65;78.79
11499;BME280;5806;48.748;9.278;2024-02-21T06:22:37;101445.13;;;9.53;79.70
11499;BME280;5806;48.748;9.278;2024-02-21T06:25:06;101442.49;;;9.56;79.70
11499;BME280;5806;48.748;9.278;2024-02-21T06:27:33;101441.00;;;9.60;79.20
11499;BME280;5806;48.748;9.278;2024-02-21T06:30:01;101436.05;;;9.44;80.00
11499;BME280;5806;48.748;9.278;2024-02-21T06:32:29;101438.01;;;9.52;79.49
11499;BME280;5806;48.748;9.278;2024-02-21T06:34:57;101430.79;;;9.49;80.55
11499;BME280;5806;48.748;9.278;2024-02-21T06:37:24;101433.52;;;9.49;80.16
11499;BME280;5806;48.748;9.278;2024-02-21T06:39:51;101424.02;;;9.58;79.57
11499;BME280;5806;48.748;9.278;2024-02-21T06:42:19;101426.82;;;9.45;80.62
11499;BME280;5806;48.748;9.278;2024-02-21T06:44:48;101423.33;;;9.47;80.48
11499;BME280;5806;48.748;9.278;2024-02-21T06:47:17;101420.26;;;9.52;80.10
11499;BME280;5806;48.748;9.278;2024-02-21T06:49:51;101412.83;;;9.50;79.76
11499;BME280;5806;48.748;9.278;2024-02-21T06:52:16;101409.98;;;9.48;80.39
11499;BME280;5806;48.748;9.278;2024-02-21T06:54:44;101407.63;;;9.58;79.77
11499;BME280;5806;48.748;9.278;2024-02-21T06:57:11;101401.02;;;9.56;78.92
11499;BME280;5806;48.748;9.278;2024-02-21T06:59:39;101402.72;;;9.51;79.04
11499;BME280;5806;48.748;9.278;2024-02-21T07:02:06;101399.56;;;9.54;79.51
11499;BME280;5806;48.748;9.278;2024-02-21T07:04:34;101395.89;;;9.51;78.96
11499;BME280;5806;48.748;9.278;2024-02-21T07:07:02;101390.44;;;9.51;79.14
11499;BME280;5806;48.748;9.278;2024-02-21T07:09:32;101389.50;;;9.48;79.15
11499;BME280;5806;48.748;9.278;2024-02-21T07:12:01;101383.82;;;9.49;79.13
11499;BME280;5806;48.748;9.278;2024-02-21T07:14:30;101390.13;;;9.50;79.10
11499;BME280;5806;48.748;9.278;2024-02-21T07:17:00;101388.50;;;9.58;78.78
11499;BME280;5806;48.748;9.278;2024-02-21T07:19:27;101390.22;;;9.52;79.23
11499;BME280;5806;48.748;9.278;2024-02-21T07:21:55;101387.92;;;9.49;79.17
11499;BME280;5806;48.748;9.278;2024-02-21T07:24:23;101384.80;;;9.46;79.39
11499;BME280;5806;48.748;9.278;2024-02-21T07:26:51;101384.16;;;9.44;79.53
11499;BME280;5806;48.748;9.278;2024-02-21T07:29:19;101384.16;;;9.44;79.07
11499;BME280;5806;48.748;9.278;2024-02-21T07:31:48;101382.53;;;9.58;78.68
11499;BME280;5806;48.748;9.278;2024-02-21T07:34:17;101382.41;;;9.56;78.69
11499;BME280;5806;48.748;9.278;2024-02-21T07:36:44;101389.31;;;9.65;78.32
11499;BME280;5806;48.748;9.278;2024-02-21T07:39:12;101380.87;;;9.66;78.18
11499;BME280;5806;48.748;9.278;2024-02-21T07:41:39;101382.91;;;9.62;78.13
11499;BME280;5806;48.748;9.278;2024-02-21T07:44:08;101381.89;;;9.56;78.26
11499;BME280;5806;48.748;9.278;2024-02-21T07:46:36;101377.45;;;9.62;78.36
11499;BME280;5806;48.748;9.278;2024-02-21T07:49:03;101374.13;;;9.53;79.10
11499;BME280;5806;48.748;9.278;2024-02-21T07:51:30;101377.50;;;9.55;78.99
11499;BME280;5806;48.748;9.278;2024-02-21T07:53:58;101374.80;;;9.64;78.36
11499;BME280;5806;48.748;9.278;2024-02-21T07:56:27;101372.33;;;9.72;77.78
11499;BME280;5806;48.748;9.278;2024-02-21T07:58:55;101364.73;;;9.65;78.02
11499;BME280;5806;48.748;9.278;2024-02-21T08:01:23;101365.04;;;9.50;78.81
11499;BME280;5806;48.748;9.278;2024-02-21T08:03:50;101368.19;;;9.63;78.67
11499;BME280;5806;48.748;9.278;2024-02-21T08:06:17;101363.25;;;9.62;78.18
11499;BME280;5806;48.748;9.278;2024-02-21T08:08:45;101365.98;;;9.62;78.34
11499;BME280;5806;48.748;9.278;2024-02-21T08:11:12;101360.36;;;9.42;79.07
11499;BME280;5806;48.748;9.278;2024-02-21T08:13:40;101353.22;;;9.56;78.45
11499;BME280;5806;48.748;9.278;2024-02-21T08:16:07;101348.19;;;9.53;78.68
11499;BME280;5806;48.748;9.278;2024-02-21T08:18:34;101349.64;;;9.56;78.29
11499;BME280;5806;48.748;9.278;2024-02-21T08:21:04;101338.58;;;9.60;78.11
11499;BME280;5806;48.748;9.278;2024-02-21T08:23:31;101343.31;;;9.62;78.38
11499;BME280;5806;48.748;9.278;2024-02-21T08:25:59;101333.04;;;9.57;78.43
11499;BME280;5806;48.748;9.278;2024-02-21T08:28:26;101326.42;;;9.56;78.18
11499;BME280;5806;48.748;9.278;2024-02-21T08:30:54;101316.08;;;9.64;77.82
11499;BME280;5806;48.748;9.278;2024-02-21T08:33:21;101318.12;;;9.44;77.78
11499;BME280;5806;48.748;9.278;2024-02-21T08:35:51;101313.48;;;9.60;78.03
11499;BME280;5806;48.748;9.278;2024-02-21T08:38:18;101310.56;;;9.46;77.60
11499;BME280;5806;48.748;9.278;2024-02-21T08:40:46;101310.94;;;9.50;77.89
11499;BME280;5806;48.748;9.278;2024-02-21T08:43:13;101308.27;;;9.68;77.28
11499;BME280;5806;48.748;9.278;2024-02-21T08:45:41;101296.94;;;9.55;77.71
11499;BME280;5806;48.748;9.278;2024-02-21T08:48:08;101295.59;;;9.64;77.67
11499;BME280;5806;48.748;9.278;2024-02-21T08:50:35;101292.86;;;9.64;77.37
11499;BME280;5806;48.748;9.278;2024-02-21T08:53:04;101289.02;;;9.72;77.18
11499;BME280;5806;48.748;9.278;2024-02-21T08:55:32;101294.07;;;9.59;76.87
11499;BME280;5806;48.748;9.278;2024-02-21T08:58:00;101293.25;;;9.68;76.53
11499;BME280;5806;48.748;9.278;2024-02-21T09:00:27;101283.33;;;9.73;76.47
11499;BME280;5806;48.748;9.278;2024-02-21T09:02:55;101276.63;;;9.85;75.74
11499;BME280;5806;48.748;9.278;2024-02-21T09:05:22;101276.00;;;9.83;76.24
11499;BME280;5806;48.748;9.278;2024-02-21T09:07:51;101270.59;;;9.76;76.14
11499;BME280;5806;48.748;9.278;2024-02-21T09:10:18;101264.27;;;9.91;75.28
11499;BME280;5806;48.748;9.278;2024-02-21T09:12:46;101268.03;;;9.90;74.95
11499;BME280;5806;48.748;9.278;2024-02-21T09:15:13;101258.23;;;9.83;74.04
11499;BME280;5806;48.748;9.278;2024-02-21T09:17:41;101247.47;;;9.88;74.29
11499;BME280;5806;48.748;9.278;2024-02-21T09:20:09;101245.33;;;10.05;74.07
11499;BME280;5806;48.748;9.278;2024-02-21T09:22:38;101245.11;;;10.07;73.20
11499;BME280;5806;48.748;9.278;2024-02-21T09:25:06;101237.61;;;10.12;74.04
11499;BME280;5806;48.748;9.278;2024-02-21T09:27:34;101230.07;;;10.16;73.05
11499;BME280;5806;48.748;9.278;2024-02-21T09:30:01;101231.66;;;10.14;72.61
11499;BME280;5806;48.748;9.278;2024-02-21T09:32:30;101230.00;;;10.13;72.83
11499;BME280;5806;48.748;9.278;2024-02-21T09:34:59;101232.21;;;10.05;72.35
11499;BME280;5806;48.748;9.278;2024-02-21T09:37:26;101234.25;;;10.09;73.10
11499;BME280;5806;48.748;9.278;2024-02-21T09:39:54;101224.67;;;10.18;72.78
11499;BME280;5806;48.748;9.278;2024-02-21T09:42:21;101231.77;;;10.17;72.95
11499;BME280;5806;48.748;9.278;2024-02-21T09:44:51;101226.59;;;10.18;71.89
11499;BME280;5806;48.748;9.278;2024-02-21T09:47:28;101218.54;;;10.23;72.02
11499;BME280;5806;48.748;9.278;2024-02-21T09:49:49;101209.19;;;10.31;71.83
11499;BME280;5806;48.748;9.278;2024-02-21T09:52:17;101206.25;;;10.14;70.97
11499;BME280;5806;48.748;9.278;2024-02-21T09:54:48;101203.66;;;10.19;70.87
11499;BME280;5806;48.748;9.278;2024-02-21T09:57:15;101205.54;;;10.18;71.22
11499;BME280;5806;48.748;9.278;2024-02-21T09:59:43;101201.39;;;10.25;70.90
11499;BME280;5806;48.748;9.278;2024-02-21T10:02:12;101200.77;;;10.23;70.74
11499;BME280;5806;48.748;9.278;2024-02-21T10:04:43;101197.95;;;10.30;69.61
11499;BME280;5806;48.748;9.278;2024-02-21T10:07:11;101192.78;;;10.31;69.64
11499;BME280;5806;48.748;9.278;2024-02-21T10:09:38;101194.37;;;10.47;69.70
11499;BME280;5806;48.748;9.278;2024-02-21T10:12:10;101194.51;;;10.52;69.53
11499;BME280;5806;48.748;9.278;2024-02-21T10:14:38;101194.55;;;10.34;68.38
11499;BME280;5806;48.748;9.278;2024-02-21T10:17:06;101194.84;;;10.35;68.81
11499;BME280;5806;48.748;9.278;2024-02-21T10:19:35;101186.59;;;10.53;69.06
11499;BME280;5806;48.748;9.278;2024-02-21T10:22:07;101188.44;;;10.41;68.53
11499;BME280;5806;48.748;9.278;2024-02-21T10:24:36;101184.80;;;10.47;69.19
11499;BME280;5806;48.748;9.278;2024-02-21T10:27:10;101182.53;;;10.35;68.26
11499;BME280;5806;48.748;9.278;2024-02-21T10:29:39;101190.33;;;10.50;69.14
11499;BME280;5806;48.748;9.278;2024-02-21T10:32:07;101185.32;;;10.47;68.17
11499;BME280;5806;48.748;9.278;2024-02-21T10:34:36;101183.95;;;10.47;68.21
11499;BME280;5806;48.748;9.278;2024-02-21T10:37:10;101183.20;;;10.49;68.63
11499;BME280;5806;48.748;9.278;2024-02-21T10:39:37;101178.03;;;10.50;68.08
11499;BME280;5806;48.748;9.278;2024-02-21T10:42:04;101170.73;;;10.53;68.63
11499;BME280;5806;48.748;9.278;2024-02-21T10:44:32;101167.54;;;10.47;68.26
11499;BME280;5806;48.748;9.278;2024-02-21T10:47:03;101165.34;;;10.55;68.01
11499;BME280;5806;48.748;9.278;2024-02-21T10:49:30;101164.72;;;10.53;67.75
11499;BME280;5806;48.748;9.278;2024-02-21T10:54:56;101148.92;;;10.55;66.87
11499;BME280;5806;48.748;9.278;2024-02-21T10:57:25;101149.80;;;10.67;67.40
11499;BME280;5806;48.748;9.278;2024-02-21T10:59:55;101145.66;;;10.76;67.01
11499;BME280;5806;48.748;9.278;2024-02-21T11:02:23;101145.79;;;10.81;66.53
11499;BME280;5806;48.748;9.278;2024-02-21T11:04:53;101136.19;;;10.70;66.68
11499;BME280;5806;48.748;9.278;2024-02-21T11:07:21;101129.92;;;10.81;66.81
11499;BME280;5806;48.748;9.278;2024-02-21T11:09:53;101118.86;;;10.76;66.16
11499;BME280;5806;48.748;9.278;2024-02-21T11:12:23;101116.47;;;10.79;66.06
11499;BME280;5806;48.748;9.278;2024-02-21T11:15:09;101097.16;;;10.83;65.30
11499;BME280;5806;48.748;9.278;2024-02-21T11:17:33;101085.74;;;10.86;65.91
11499;BME280;5806;48.748;9.278;2024-02-21T11:20:16;101074.07;;;10.91;65.99
11499;BME280;5806;48.748;9.278;2024-02-21T11:22:43;101073.44;;;10.98;65.41
11499;BME280;5806;48.748;9.278;2024-02-21T11:25:11;101068.58;;;11.11;65.49
11499;BME280;5806;48.748;9.278;2024-02-21T11:27:38;101060.36;;;11.11;65.36
11499;BME280;5806;48.748;9.278;2024-02-21T11:30:06;101054.27;;;11.09;64.29
11499;BME280;5806;48.748;9.278;2024-02-21T11:32:33;101042.48;;;10.97;65.32
11499;BME280;5806;48.748;9.278;2024-02-21T11:35:03;101031.91;;;11.01;63.70
11499;BME280;5806;48.748;9.278;2024-02-21T11:37:32;101027.43;;;10.97;63.94
11499;BME280;5806;48.748;9.278;2024-02-21T11:40:00;101013.40;;;10.94;64.18
11499;BME280;5806;48.748;9.278;2024-02-21T11:42:30;100999.23;;;11.08;65.18
11499;BME280;5806;48.748;9.278;2024-02-21T11:44:59;100990.27;;;11.10;64.46
11499;BME280;5806;48.748;9.278;2024-02-21T11:47:28;100979.17;;;11.05;63.63
11499;BME280;5806;48.748;9.278;2024-02-21T11:49:56;100966.20;;;11.12;63.94
11499;BME280;5806;48.748;9.278;2024-02-21T11:52:25;100956.63;;;11.12;64.65
11499;BME280;5806;48.748;9.278;2024-02-21T11:54:54;100955.73;;;11.21;64.54
11499;BME280;5806;48.748;9.278;2024-02-21T11:57:23;100959.13;;;11.14;64.74
11499;BME280;5806;48.748;9.278;2024-02-21T11:59:52;100961.99;;;11.07;63.29
11499;BME280;5806;48.748;9.278;2024-02-21T12:02:21;100950.44;;;11.05;63.73
11499;BME280;5806;48.748;9.278;2024-02-21T12:04:48;100931.94;;;11.10;63.89
11499;BME280;5806;48.748;9.278;2024-02-21T12:07:16;100931.56;;;11.18;64.33
11499;BME280;5806;48.748;9.278;2024-02-21T12:09:44;100929.22;;;11.24;63.42
11499;BME280;5806;48.748;9.278;2024-02-21T12:12:11;100920.45;;;11.10;63.16
11499;BME280;5806;48.748;9.278;2024-02-21T12:14:39;100905.84;;;11.19;63.22
11499;BME280;5806;48.748;9.278;2024-02-21T12:17:06;100915.28;;;11.25;64.05
11499;BME280;5806;48.748;9.278;2024-02-21T12:19:34;100900.78;;;11.25;64.27
11499;BME280;5806;48.748;9.278;2024-02-21T12:22:02;100890.22;;;11.05;63.11
11499;BME280;5806;48.748;9.278;2024-02-21T12:24:31;100882.61;;;11.07;62.39
11499;BME280;5806;48.748;9.278;2024-02-21T12:26:58;100878.51;;;11.07;63.07
11499;BME280;5806;48.748;9.278;2024-02-21T12:29:26;100863.89;;;11.16;63.90
11499;BME280;5806;48.748;9.278;2024-02-21T12:31:54;100845.95;;;11.08;62.96
11499;BME280;5806;48.748;9.278;2024-02-21T12:34:23;100847.60;;;11.09;63.15
11499;BME280;5806;48.748;9.278;2024-02-21T12:36:52;100834.90;;;11.17;63.21
11499;BME280;5806;48.748;9.278;2024-02-21T12:39:20;100832.16;;;11.17;63.19
11499;BME280;5806;48.748;9.278;2024-02-21T12:41:47;100828.70;;;11.22;63.36
11499;BME280;5806;48.748;9.278;2024-02-21T12:44:15;100814.77;;;11.37;63.02
11499;BME280;5806;48.748;9.278;2024-02-21T12:46:44;100808.47;;;11.37;63.19
11499;BME280;5806;48.748;9.278;2024-02-21T12:49:11;100803.56;;;11.39;62.68
11499;BME280;5806;48.748;9.278;2024-02-21T12:51:39;100794.91;;;11.44;62.92
11499;BME280;5806;48.748;9.278;2024-02-21T12:54:08;100788.59;;;11.44;62.54
11499;BME280;5806;48.748;9.278;2024-02-21T12:56:37;100770.09;;;11.51;62.68
11499;BME280;5806;48.748;9.278;2024-02-21T12:59:06;100757.49;;;11.50;62.51
11499;BME280;5806;48.748;9.278;2024-02-21T13:01:37;100741.94;;;11.53;62.16
11499;BME280;5806;48.748;9.278;2024-02-21T13:04:04;100722.78;;;11.39;61.33
11499;BME280;5806;48.748;9.278;2024-02-21T13:06:32;100677.11;;;11.42;62.19
11499;BME280;5806;48.748;9.278;2024-02-21T13:08:59;100662.53;;;11.39;60.61
11499;BME280;5806;48.748;9.278;2024-02-21T13:11:28;100677.53;;;11.50;61.44
11499;BME280;5806;48.748;9.278;2024-02-21T13:13:57;100675.33;;;11.50;61.48